createdAt,value
2018-06-09T00:00:08.297Z,4.00
2018-06-09T00:01:08.317Z,4.00
2018-06-09T00:02:08.330Z,4.00
2018-06-09T00:03:08.342Z,0.00
2018-06-09T00:04:08.367Z,0.00
2018-06-09T00:05:08.381Z,4.00
2018-06-09T00:06:08.409Z,4.00
2018-06-09T00:08:08.432Z,4.00
2018-06-09T00:09:08.447Z,4.00
2018-06-09T00:10:08.461Z,4.00
2018-06-09T00:11:08.494Z,4.00
2018-06-09T00:12:08.493Z,4.00
2018-06-09T00:13:08.509Z,4.00
2018-06-09T00:14:08.581Z,4.00
2018-06-09T00:15:08.545Z,4.00
2018-06-09T00:16:08.562Z,4.00
2018-06-09T00:17:08.576Z,4.00
2018-06-09T00:18:08.590Z,4.00
2018-06-09T00:19:08.603Z,4.00
2018-06-09T00:20:08.624Z,4.00
2018-06-09T00:21:08.645Z,4.00
2018-06-09T00:22:08.657Z,4.00
2018-06-09T00:23:08.673Z,4.00
2018-06-09T00:24:08.711Z,4.00
2018-06-09T00:25:08.714Z,4.00
2018-06-09T00:26:08.776Z,4.00
2018-06-09T00:27:08.737Z,4.00
2018-06-09T00:28:08.756Z,4.00
2018-06-09T00:29:08.774Z,4.00
2018-06-09T00:30:08.782Z,4.00
2018-06-09T00:31:08.801Z,4.00
2018-06-09T00:32:08.815Z,4.00
2018-06-09T00:33:08.840Z,4.00
2018-06-09T00:34:08.862Z,4.00
2018-06-09T00:35:08.864Z,4.00
2018-06-09T00:36:08.882Z,4.00
2018-06-09T00:37:08.900Z,4.00
2018-06-09T00:38:08.919Z,4.00
2018-06-09T00:39:08.935Z,4.00
2018-06-09T00:40:08.952Z,4.00
2018-06-09T00:41:08.962Z,4.00
2018-06-09T00:42:08.979Z,4.00
2018-06-09T00:43:09.054Z,4.00
2018-06-09T00:44:09.017Z,4.00
2018-06-09T00:45:09.028Z,4.00
2018-06-09T00:46:09.049Z,4.00
2018-06-09T00:47:09.064Z,4.00
2018-06-09T00:48:09.076Z,4.00
2018-06-09T00:49:09.149Z,4.00
2018-06-09T00:50:09.109Z,4.00
2018-06-09T00:51:09.129Z,4.00
2018-06-09T00:52:09.146Z,4.00
2018-06-09T00:53:09.156Z,4.00
2018-06-09T00:54:09.174Z,4.00
2018-06-09T00:55:09.246Z,4.00
2018-06-09T00:56:09.209Z,4.00
2018-06-09T00:57:09.228Z,4.00
2018-06-09T00:58:09.237Z,4.00
2018-06-09T00:59:09.253Z,4.00
2018-06-09T01:00:09.271Z,4.00
2018-06-09T01:01:09.339Z,4.00
2018-06-09T01:02:09.309Z,4.00
2018-06-09T01:03:09.319Z,4.00
2018-06-09T01:04:09.340Z,4.00
2018-06-09T01:05:09.355Z,4.00
2018-06-09T01:06:09.376Z,4.00
2018-06-09T01:07:09.440Z,4.00
2018-06-09T01:08:09.401Z,4.00
2018-06-09T01:09:09.415Z,4.00
2018-06-09T01:10:09.435Z,4.00
2018-06-09T01:11:09.460Z,4.00
2018-06-09T01:12:09.470Z,4.00
2018-06-09T01:13:09.488Z,4.00
2018-06-09T01:14:09.503Z,4.00
2018-06-09T01:15:09.515Z,4.00
2018-06-09T01:16:09.534Z,4.00
2018-06-09T01:17:09.624Z,4.00
2018-06-09T01:18:09.561Z,4.00
2018-06-09T01:19:09.629Z,4.00
2018-06-09T01:20:09.597Z,4.00
2018-06-09T01:21:09.617Z,4.00
2018-06-09T01:22:09.628Z,4.00
2018-06-09T01:23:09.684Z,4.00
2018-06-09T01:24:09.660Z,4.00
2018-06-09T01:25:09.679Z,4.00
2018-06-09T01:26:09.691Z,4.00
2018-06-09T01:27:09.711Z,4.00
2018-06-09T01:28:09.723Z,4.00
2018-06-09T01:29:09.790Z,4.00
2018-06-09T01:30:09.754Z,4.00
2018-06-09T01:31:09.824Z,4.00
2018-06-09T01:32:09.788Z,4.00
2018-06-09T01:33:09.807Z,4.00
2018-06-09T01:34:09.897Z,4.00
2018-06-09T01:35:09.913Z,4.00
2018-06-09T01:36:09.849Z,4.00
2018-06-09T01:37:09.865Z,4.00
2018-06-09T01:38:09.885Z,4.00
2018-06-09T01:39:09.896Z,4.00
2018-06-09T01:40:09.917Z,4.00
2018-06-09T01:41:10.022Z,4.00
2018-06-09T01:42:09.949Z,4.00
2018-06-09T01:43:10.014Z,4.00
2018-06-09T01:44:09.980Z,4.00
2018-06-09T01:45:09.998Z,4.00
2018-06-09T01:46:10.013Z,4.00
2018-06-09T01:47:10.024Z,4.00
2018-06-09T01:48:10.044Z,4.00
2018-06-09T01:49:10.068Z,4.00
2018-06-09T01:50:10.077Z,4.00
2018-06-09T01:51:10.093Z,4.00
2018-06-09T01:52:10.111Z,4.00
2018-06-09T01:53:10.172Z,4.00
2018-06-09T01:54:10.139Z,4.00
2018-06-09T01:55:10.206Z,4.00
2018-06-09T01:56:10.172Z,4.00
2018-06-09T01:57:10.188Z,4.00
2018-06-09T01:58:10.203Z,4.00
2018-06-09T01:59:10.256Z,4.00
2018-06-09T02:00:10.238Z,4.00
2018-06-09T02:01:10.257Z,4.00
2018-06-09T02:02:10.270Z,4.00
2018-06-09T02:03:10.288Z,4.00
2018-06-09T02:04:10.297Z,4.00
2018-06-09T02:05:10.346Z,4.00
2018-06-09T02:06:10.336Z,4.00
2018-06-09T02:07:10.350Z,4.00
2018-06-09T02:08:10.368Z,4.00
2018-06-09T02:09:10.417Z,4.00
2018-06-09T02:10:10.395Z,4.00
2018-06-09T02:11:10.486Z,4.00
2018-06-09T02:12:10.429Z,4.00
2018-06-09T02:13:10.500Z,4.00
2018-06-09T02:14:10.461Z,4.00
2018-06-09T02:15:10.473Z,4.00
2018-06-09T02:16:10.490Z,4.00
2018-06-09T02:17:10.559Z,4.00
2018-06-09T02:18:10.528Z,4.00
2018-06-09T02:19:10.608Z,4.00
2018-06-09T02:20:10.607Z,4.00
2018-06-09T02:21:10.606Z,4.00
2018-06-09T02:22:10.602Z,4.00
2018-06-09T02:23:10.664Z,4.00
2018-06-09T02:24:10.662Z,4.00
2018-06-09T02:25:10.715Z,4.00
2018-06-09T02:26:10.662Z,4.00
2018-06-09T02:27:10.665Z,4.00
2018-06-09T02:28:10.683Z,4.00
2018-06-09T02:29:10.745Z,4.00
2018-06-09T02:30:10.717Z,4.00
2018-06-09T02:31:10.735Z,4.00
2018-06-09T02:32:10.753Z,4.00
2018-06-09T02:33:10.769Z,4.00
2018-06-09T02:34:10.782Z,4.00
2018-06-09T02:35:10.841Z,4.00
2018-06-09T02:36:10.812Z,4.00
2018-06-09T02:37:10.877Z,4.00
2018-06-09T02:38:10.841Z,4.00
2018-06-09T02:39:10.865Z,4.00
2018-06-09T02:40:10.881Z,4.00
2018-06-09T02:41:10.899Z,4.00
2018-06-09T02:42:10.916Z,4.00
2018-06-09T02:43:10.925Z,4.00
2018-06-09T02:44:10.941Z,4.00
2018-06-09T02:45:10.962Z,4.00
2018-06-09T02:46:10.973Z,4.00
2018-06-09T02:47:10.999Z,4.00
2018-06-09T02:48:11.004Z,4.00
2018-06-09T02:49:11.026Z,4.00
2018-06-09T02:50:11.035Z,4.00
2018-06-09T02:51:11.059Z,4.00
2018-06-09T02:52:11.070Z,4.00
2018-06-09T02:53:11.090Z,4.00
2018-06-09T02:54:11.108Z,4.00
2018-06-09T02:55:11.121Z,4.00
2018-06-09T02:56:11.146Z,4.00
2018-06-09T02:57:11.150Z,4.00
2018-06-09T02:58:11.227Z,4.00
2018-06-09T02:59:11.187Z,4.00
2018-06-09T03:00:11.243Z,4.00
2018-06-09T03:01:11.211Z,4.00
2018-06-09T03:02:11.231Z,4.00
2018-06-09T03:03:11.245Z,4.00
2018-06-09T03:04:11.264Z,4.00
2018-06-09T03:05:11.285Z,4.00
2018-06-09T03:06:11.297Z,4.00
2018-06-09T03:07:11.322Z,4.00
2018-06-09T03:08:11.327Z,4.00
2018-06-09T03:09:11.351Z,4.00
2018-06-09T03:10:11.362Z,4.00
2018-06-09T03:11:11.412Z,4.00
2018-06-09T03:12:11.442Z,4.00
2018-06-09T03:13:11.409Z,4.00
2018-06-09T03:14:11.426Z,4.00
2018-06-09T03:15:11.449Z,4.00
2018-06-09T03:16:11.454Z,4.00
2018-06-09T03:17:11.494Z,4.00
2018-06-09T03:18:11.539Z,4.00
2018-06-09T03:19:11.514Z,4.00
2018-06-09T03:20:11.518Z,4.00
2018-06-09T03:21:11.538Z,4.00
2018-06-09T03:22:11.552Z,4.00
2018-06-09T03:23:11.571Z,4.00
2018-06-09T03:24:11.639Z,4.00
2018-06-09T03:25:11.603Z,4.00
2018-06-09T03:26:11.623Z,4.00
2018-06-09T03:27:11.633Z,4.00
2018-06-09T03:28:11.651Z,4.00
2018-06-09T03:29:11.668Z,4.00
2018-06-09T03:30:11.733Z,4.00
2018-06-09T03:31:11.701Z,4.00
2018-06-09T03:32:11.717Z,4.00
2018-06-09T03:33:11.731Z,4.00
2018-06-09T03:34:11.741Z,4.00
2018-06-09T03:35:11.834Z,4.00
2018-06-09T03:36:11.830Z,4.00
2018-06-09T03:37:11.797Z,4.00
2018-06-09T03:38:11.809Z,4.00
2018-06-09T03:39:11.827Z,4.00
2018-06-09T03:40:11.850Z,4.00
2018-06-09T03:41:11.858Z,4.00
2018-06-09T03:42:11.877Z,4.00
2018-06-09T03:43:11.925Z,4.00
2018-06-09T03:44:11.911Z,4.00
2018-06-09T03:45:11.927Z,4.00
2018-06-09T03:46:11.940Z,4.00
2018-06-09T03:47:11.992Z,4.00
2018-06-09T03:48:11.975Z,4.00
2018-06-09T03:49:11.990Z,4.00
2018-06-09T03:50:12.007Z,4.00
2018-06-09T03:51:12.022Z,4.00
2018-06-09T03:52:12.036Z,4.00
2018-06-09T03:53:12.053Z,4.00
2018-06-09T03:54:12.070Z,4.00
2018-06-09T03:55:12.086Z,4.00
2018-06-09T03:56:12.100Z,4.00
2018-06-09T03:57:12.116Z,4.00
2018-06-09T03:58:12.134Z,4.00
2018-06-09T03:59:12.151Z,4.00
2018-06-09T04:00:12.162Z,4.00
2018-06-09T04:01:12.181Z,4.00
2018-06-09T04:02:12.195Z,4.00
2018-06-09T04:03:12.217Z,4.00
2018-06-09T04:04:12.223Z,4.00
2018-06-09T04:05:12.251Z,4.00
2018-06-09T04:06:12.308Z,4.00
2018-06-09T04:07:12.279Z,4.00
2018-06-09T04:08:12.294Z,4.00
2018-06-09T04:09:12.316Z,0.00
2018-06-09T04:10:12.327Z,4.00
2018-06-09T04:11:12.347Z,4.00
2018-06-09T04:12:12.405Z,4.00
2018-06-09T04:13:12.376Z,4.00
2018-06-09T04:14:12.393Z,4.00
2018-06-09T04:15:12.413Z,4.00
2018-06-09T04:16:12.417Z,4.00
2018-06-09T04:17:12.475Z,4.00
2018-06-09T04:18:12.457Z,4.00
2018-06-09T04:19:12.479Z,4.00
2018-06-09T04:20:12.486Z,4.00
2018-06-09T04:21:12.495Z,4.00
2018-06-09T04:22:12.512Z,4.00
2018-06-09T04:23:12.614Z,4.00
2018-06-09T04:24:12.545Z,4.00
2018-06-09T04:25:12.565Z,4.00
2018-06-09T04:26:12.579Z,4.00
2018-06-09T04:27:12.598Z,4.00
2018-06-09T04:28:12.615Z,4.00
2018-06-09T04:29:12.638Z,4.00
2018-06-09T04:30:12.696Z,4.00
2018-06-09T04:31:12.655Z,4.00
2018-06-09T04:32:12.673Z,4.00
2018-06-09T04:33:12.693Z,4.00
2018-06-09T04:34:12.711Z,4.00
2018-06-09T04:35:12.750Z,4.00
2018-06-09T04:36:12.793Z,4.00
2018-06-09T04:37:12.758Z,4.00
2018-06-09T04:38:12.770Z,4.00
2018-06-09T04:39:12.784Z,4.00
2018-06-09T04:40:12.807Z,4.00
2018-06-09T04:41:12.821Z,4.00
2018-06-09T04:42:12.834Z,4.00
2018-06-09T04:43:12.857Z,4.00
2018-06-09T04:44:12.863Z,0.00
2018-06-09T04:45:12.885Z,0.00
2018-06-09T04:46:12.899Z,0.00
2018-06-09T04:47:12.916Z,0.00
2018-06-09T04:48:12.982Z,0.00
2018-06-09T04:49:12.957Z,4.00
2018-06-09T04:50:12.967Z,4.00
2018-06-09T04:51:12.986Z,4.00
2018-06-09T04:52:13.006Z,4.00
2018-06-09T04:53:13.015Z,4.00
2018-06-09T04:54:13.036Z,4.00
2018-06-09T04:55:13.041Z,4.00
2018-06-09T04:56:13.061Z,4.00
2018-06-09T04:57:13.082Z,4.00
2018-06-09T04:58:13.089Z,4.00
2018-06-09T04:59:13.132Z,8.00
2018-06-09T05:00:13.128Z,8.00
2018-06-09T05:01:13.145Z,8.00
2018-06-09T05:02:13.154Z,8.00
2018-06-09T05:03:13.174Z,8.00
2018-06-09T05:04:13.194Z,12.00
2018-06-09T05:05:13.208Z,12.00
2018-06-09T05:06:13.278Z,16.00
2018-06-09T05:07:13.287Z,16.00
2018-06-09T05:08:13.255Z,20.00
2018-06-09T05:09:13.273Z,20.00
2018-06-09T05:10:13.313Z,20.00
2018-06-09T05:11:13.306Z,24.00
2018-06-09T05:12:13.373Z,28.00
2018-06-09T05:13:13.340Z,28.00
2018-06-09T05:14:13.353Z,32.00
2018-06-09T05:15:13.386Z,36.00
2018-06-09T05:16:13.394Z,36.00
2018-06-09T05:17:13.404Z,36.00
2018-06-09T05:18:13.418Z,40.00
2018-06-09T05:19:13.435Z,40.00
2018-06-09T05:20:13.448Z,44.00
2018-06-09T05:21:13.468Z,48.00
2018-06-09T05:22:13.487Z,48.00
2018-06-09T05:23:13.501Z,52.00
2018-06-09T05:24:13.568Z,48.00
2018-06-09T05:25:13.531Z,48.00
2018-06-09T05:26:13.555Z,52.00
2018-06-09T05:27:13.568Z,52.00
2018-06-09T05:28:13.582Z,48.00
2018-06-09T05:29:13.595Z,44.00
2018-06-09T05:30:13.618Z,40.00
2018-06-09T05:31:13.632Z,40.00
2018-06-09T05:32:13.646Z,36.00
2018-06-09T05:33:13.663Z,36.00
2018-06-09T05:34:13.678Z,36.00
2018-06-09T05:35:13.699Z,40.00
2018-06-09T05:36:13.713Z,48.00
2018-06-09T05:37:13.737Z,60.00
2018-06-09T05:38:13.746Z,68.00
2018-06-09T05:39:13.764Z,64.00
2018-06-09T05:40:13.808Z,64.00
2018-06-09T05:41:13.808Z,68.00
2018-06-09T05:42:13.807Z,84.00
2018-06-09T05:43:13.821Z,92.00
2018-06-09T05:44:13.835Z,92.00
2018-06-09T05:45:13.855Z,92.00
2018-06-09T05:46:13.878Z,92.00
2018-06-09T05:47:13.895Z,84.00
2018-06-09T05:48:13.961Z,84.00
2018-06-09T05:49:13.919Z,84.00
2018-06-09T05:50:13.934Z,80.00
2018-06-09T05:51:13.958Z,84.00
2018-06-09T05:52:13.969Z,92.00
2018-06-09T05:53:13.993Z,112.00
2018-06-09T05:54:14.055Z,144.00
2018-06-09T05:55:14.021Z,160.00
2018-06-09T05:56:14.038Z,176.00
2018-06-09T05:57:14.049Z,208.00
2018-06-09T05:58:14.066Z,236.00
2018-06-09T05:59:14.084Z,260.00
2018-06-09T06:00:14.154Z,288.00
2018-06-09T06:01:14.113Z,316.00
2018-06-09T06:02:14.126Z,336.00
2018-06-09T06:03:14.148Z,348.00
2018-06-09T06:04:14.158Z,356.00
2018-06-09T06:05:14.180Z,364.00
2018-06-09T06:06:14.248Z,376.00
2018-06-09T06:07:14.205Z,392.00
2018-06-09T06:08:14.220Z,400.00
2018-06-09T06:09:14.255Z,404.00
2018-06-09T06:10:14.255Z,400.00
2018-06-09T06:11:14.276Z,392.00
2018-06-09T06:12:14.349Z,368.00
2018-06-09T06:13:14.299Z,348.00
2018-06-09T06:14:14.321Z,336.00
2018-06-09T06:15:14.373Z,328.00
2018-06-09T06:16:14.351Z,336.00
2018-06-09T06:17:14.364Z,344.00
2018-06-09T06:18:14.433Z,376.00
2018-06-09T06:19:14.401Z,396.00
2018-06-09T06:20:14.419Z,376.00
2018-06-09T06:21:14.437Z,376.00
2018-06-09T06:22:14.450Z,404.00
2018-06-09T06:23:14.466Z,416.00
2018-06-09T06:24:14.525Z,408.00
2018-06-09T06:25:14.491Z,376.00
2018-06-09T06:26:14.507Z,336.00
2018-06-09T06:27:14.529Z,364.00
2018-06-09T06:28:14.546Z,416.00
2018-06-09T06:29:14.560Z,440.00
2018-06-09T06:30:14.621Z,448.00
2018-06-09T06:31:14.593Z,448.00
2018-06-09T06:32:14.604Z,444.00
2018-06-09T06:33:14.632Z,456.00
2018-06-09T06:34:14.636Z,480.00
2018-06-09T06:35:14.655Z,528.00
2018-06-09T06:36:14.724Z,580.00
2018-06-09T06:37:14.687Z,612.00
2018-06-09T06:38:14.725Z,612.00
2018-06-09T06:39:14.730Z,620.00
2018-06-09T06:40:14.736Z,648.00
2018-06-09T06:41:14.750Z,628.00
2018-06-09T06:42:14.815Z,612.00
2018-06-09T06:43:14.777Z,636.00
2018-06-09T06:44:14.816Z,672.00
2018-06-09T06:45:14.808Z,672.00
2018-06-09T06:46:14.835Z,672.00
2018-06-09T06:47:14.918Z,660.00
2018-06-09T06:48:14.913Z,672.00
2018-06-09T06:49:14.875Z,640.00
2018-06-09T06:50:14.961Z,600.00
2018-06-09T06:51:14.915Z,560.00
2018-06-09T06:52:14.925Z,596.00
2018-06-09T06:53:14.938Z,560.00
2018-06-09T06:54:15.011Z,564.00
2018-06-09T06:55:14.972Z,680.00
2018-06-09T06:56:14.988Z,776.00
2018-06-09T06:57:15.003Z,828.00
2018-06-09T06:58:15.021Z,888.00
2018-06-09T06:59:15.039Z,956.00
2018-06-09T07:00:15.104Z,940.00
2018-06-09T07:01:15.096Z,860.00
2018-06-09T07:02:15.142Z,820.00
2018-06-09T07:03:15.101Z,788.00
2018-06-09T07:04:15.117Z,440.00
2018-06-09T07:05:15.134Z,284.00
2018-06-09T07:06:15.203Z,248.00
2018-06-09T07:07:15.160Z,248.00
2018-06-09T07:08:15.234Z,256.00
2018-06-09T07:09:15.195Z,260.00
2018-06-09T07:10:15.214Z,252.00
2018-06-09T07:11:15.230Z,248.00
2018-06-09T07:12:15.295Z,232.00
2018-06-09T07:13:15.267Z,232.00
2018-06-09T07:14:15.338Z,252.00
2018-06-09T07:15:15.291Z,276.00
2018-06-09T07:16:15.312Z,256.00
2018-06-09T07:17:15.321Z,320.00
2018-06-09T07:18:15.396Z,296.00
2018-06-09T07:19:15.356Z,280.00
2018-06-09T07:20:15.456Z,308.00
2018-06-09T07:21:15.391Z,488.00
2018-06-09T07:22:15.440Z,680.00
2018-06-09T07:23:15.424Z,904.00
2018-06-09T07:24:15.488Z,1048.00
2018-06-09T07:25:15.456Z,1032.00
2018-06-09T07:26:15.506Z,1048.00
2018-06-09T07:27:15.488Z,1140.00
2018-06-09T07:28:15.499Z,1028.00
2018-06-09T07:29:15.516Z,1008.00
2018-06-09T07:30:15.582Z,936.00
2018-06-09T07:31:15.553Z,992.00
2018-06-09T07:32:15.566Z,968.00
2018-06-09T07:33:15.579Z,980.00
2018-06-09T07:34:15.594Z,1036.00
2018-06-09T07:35:15.687Z,1164.00
2018-06-09T07:36:15.631Z,1064.00
2018-06-09T07:37:15.668Z,1060.00
2018-06-09T07:38:15.661Z,884.00
2018-06-09T07:39:15.677Z,584.00
2018-06-09T07:40:15.695Z,504.00
2018-06-09T07:41:15.705Z,608.00
2018-06-09T07:42:15.772Z,604.00
2018-06-09T07:43:15.770Z,552.00
2018-06-09T07:44:15.761Z,572.00
2018-06-09T07:45:15.778Z,724.00
2018-06-09T07:46:15.788Z,628.00
2018-06-09T07:47:15.805Z,640.00
2018-06-09T07:48:15.825Z,716.00
2018-06-09T07:49:15.896Z,736.00
2018-06-09T07:50:15.857Z,708.00
2018-06-09T07:51:15.863Z,772.00
2018-06-09T07:52:15.890Z,716.00
2018-06-09T07:53:15.902Z,764.00
2018-06-09T07:54:15.971Z,860.00
2018-06-09T07:55:15.960Z,1116.00
2018-06-09T07:56:15.947Z,1148.00
2018-06-09T07:57:15.961Z,1180.00
2018-06-09T07:58:15.982Z,1332.00
2018-06-09T07:59:15.991Z,1512.00
2018-06-09T08:00:16.065Z,1648.00
2018-06-09T08:01:16.067Z,1764.00
2018-06-09T08:02:16.043Z,2008.00
2018-06-09T08:03:16.056Z,2016.00
2018-06-09T08:04:16.075Z,2044.00
2018-06-09T08:05:16.091Z,1904.00
2018-06-09T08:06:16.156Z,1784.00
2018-06-09T08:07:16.128Z,1820.00
2018-06-09T08:08:16.141Z,1920.00
2018-06-09T08:09:16.151Z,2156.00
2018-06-09T08:10:16.171Z,2416.00
2018-06-09T08:11:16.193Z,2416.00
2018-06-09T08:12:16.257Z,2148.00
2018-06-09T08:13:16.256Z,1956.00
2018-06-09T08:14:16.238Z,2120.00
2018-06-09T08:15:16.249Z,2200.00
2018-06-09T08:16:16.267Z,2276.00
2018-06-09T08:17:16.282Z,2252.00
2018-06-09T08:18:16.353Z,1980.00
2018-06-09T08:19:16.409Z,1712.00
2018-06-09T08:20:16.328Z,1612.00
2018-06-09T08:21:16.350Z,1608.00
2018-06-09T08:22:16.366Z,1556.00
2018-06-09T08:23:16.380Z,1544.00
2018-06-09T08:24:16.446Z,1608.00
2018-06-09T08:25:16.435Z,1612.00
2018-06-09T08:26:16.434Z,1420.00
2018-06-09T08:27:16.449Z,1412.00
2018-06-09T08:28:16.460Z,1516.00
2018-06-09T08:29:16.475Z,1456.00
2018-06-09T08:30:16.548Z,1264.00
2018-06-09T08:31:16.508Z,1284.00
2018-06-09T08:32:16.525Z,1556.00
2018-06-09T08:33:16.542Z,1548.00
2018-06-09T08:34:16.563Z,1376.00
2018-06-09T08:35:16.576Z,1172.00
2018-06-09T08:36:16.716Z,1248.00
2018-06-09T08:37:16.610Z,1196.00
2018-06-09T08:38:16.628Z,1052.00
2018-06-09T08:39:16.646Z,1096.00
2018-06-09T08:40:16.659Z,1264.00
2018-06-09T08:41:16.675Z,1460.00
2018-06-09T08:42:16.742Z,1500.00
2018-06-09T08:43:16.796Z,1540.00
2018-06-09T08:44:16.723Z,1832.00
2018-06-09T08:45:16.741Z,2300.00
2018-06-09T08:46:16.766Z,2568.00
2018-06-09T08:47:16.770Z,2748.00
2018-06-09T08:48:16.849Z,2964.00
2018-06-09T08:49:16.803Z,2984.00
2018-06-09T08:50:16.821Z,3172.00
2018-06-09T08:51:16.834Z,3048.00
2018-06-09T08:52:16.852Z,2860.00
2018-06-09T08:53:16.868Z,3024.00
2018-06-09T08:54:16.936Z,3132.00
2018-06-09T08:55:16.905Z,3148.00
2018-06-09T08:56:16.919Z,2844.00
2018-06-09T08:57:16.932Z,2572.00
2018-06-09T08:58:16.953Z,2668.00
2018-06-09T08:59:16.970Z,2956.00
2018-06-09T09:00:17.034Z,3292.00
2018-06-09T09:01:16.999Z,3384.00
2018-06-09T09:02:17.018Z,3280.00
2018-06-09T09:03:17.034Z,3372.00
2018-06-09T09:04:17.051Z,3764.00
2018-06-09T09:05:17.066Z,3824.00
2018-06-09T09:06:17.139Z,3728.00
2018-06-09T09:07:17.099Z,3808.00
2018-06-09T09:08:17.118Z,3760.00
2018-06-09T09:09:17.159Z,3800.00
2018-06-09T09:10:17.154Z,4400.00
2018-06-09T09:11:17.165Z,6524.00
2018-06-09T09:12:17.183Z,10756.00
2018-06-09T09:13:17.204Z,6008.00
2018-06-09T09:14:17.218Z,4252.00
2018-06-09T09:15:17.231Z,4092.00
2018-06-09T09:16:17.255Z,4268.00
2018-06-09T09:17:17.269Z,5368.00
2018-06-09T09:18:17.290Z,9740.00
2018-06-09T09:19:17.301Z,5292.00
2018-06-09T09:20:17.321Z,3312.00
2018-06-09T09:21:17.335Z,2692.00
2018-06-09T09:22:17.354Z,2640.00
2018-06-09T09:23:17.366Z,2620.00
2018-06-09T09:24:17.433Z,2492.00
2018-06-09T09:25:17.408Z,2624.00
2018-06-09T09:26:17.421Z,2828.00
2018-06-09T09:27:17.437Z,3252.00
2018-06-09T09:28:17.455Z,10968.00
2018-06-09T09:29:17.470Z,11844.00
2018-06-09T09:30:17.487Z,11932.00
2018-06-09T09:31:17.519Z,11712.00
2018-06-09T09:32:17.526Z,9004.00
2018-06-09T09:33:17.539Z,8880.00
2018-06-09T09:34:17.560Z,9536.00
2018-06-09T09:35:17.578Z,4560.00
2018-06-09T09:36:17.672Z,13252.00
2018-06-09T09:37:17.640Z,13260.00
2018-06-09T09:38:17.633Z,13212.00
2018-06-09T09:39:17.641Z,13392.00
2018-06-09T09:40:17.667Z,9444.00
2018-06-09T09:41:17.679Z,9968.00
2018-06-09T09:42:17.697Z,9476.00
2018-06-09T09:43:17.756Z,7648.00
2018-06-09T09:44:17.734Z,10644.00
2018-06-09T09:45:17.754Z,7620.00
2018-06-09T09:46:17.794Z,8168.00
2018-06-09T09:47:17.786Z,5760.00
2018-06-09T09:48:17.804Z,4596.00
2018-06-09T09:49:17.885Z,13900.00
2018-06-09T09:50:17.840Z,11320.00
2018-06-09T09:51:17.910Z,9928.00
2018-06-09T09:52:17.885Z,3780.00
2018-06-09T09:53:17.901Z,3640.00
2018-06-09T09:54:17.921Z,4860.00
2018-06-09T09:55:17.990Z,6108.00
2018-06-09T09:56:17.950Z,10616.00
2018-06-09T09:57:17.972Z,10128.00
2018-06-09T09:58:17.990Z,7324.00
2018-06-09T09:59:18.013Z,12996.00
2018-06-09T10:00:18.083Z,11440.00
2018-06-09T10:01:18.044Z,10620.00
2018-06-09T10:02:18.068Z,13412.00
2018-06-09T10:03:18.094Z,14528.00
2018-06-09T10:04:18.099Z,11240.00
2018-06-09T10:05:18.119Z,12312.00
2018-06-09T10:06:18.145Z,13904.00
2018-06-09T10:07:18.155Z,6792.00
2018-06-09T10:08:18.180Z,13248.00
2018-06-09T10:09:18.208Z,13788.00
2018-06-09T10:10:18.214Z,12792.00
2018-06-09T10:11:18.238Z,12168.00
2018-06-09T10:12:18.304Z,14076.00
2018-06-09T10:13:18.272Z,8212.00
2018-06-09T10:14:18.300Z,12536.00
2018-06-09T10:15:18.319Z,13088.00
2018-06-09T10:16:18.337Z,11824.00
2018-06-09T10:17:18.402Z,13544.00
2018-06-09T10:18:18.422Z,8948.00
2018-06-09T10:19:18.392Z,7964.00
2018-06-09T10:20:18.416Z,13100.00
2018-06-09T10:21:18.432Z,13352.00
2018-06-09T10:22:18.449Z,11680.00
2018-06-09T10:23:18.477Z,7204.00
2018-06-09T10:24:18.590Z,13204.00
2018-06-09T10:25:18.508Z,12248.00
2018-06-09T10:26:18.529Z,13076.00
2018-06-09T10:27:18.548Z,13372.00
2018-06-09T10:28:18.570Z,13456.00
2018-06-09T10:29:18.592Z,10460.00
2018-06-09T10:30:18.680Z,10528.00
2018-06-09T10:31:18.627Z,13124.00
2018-06-09T10:32:18.645Z,12964.00
2018-06-09T10:33:18.673Z,13000.00
2018-06-09T10:34:18.687Z,11664.00
2018-06-09T10:35:18.705Z,12356.00
2018-06-09T10:36:18.779Z,12796.00
2018-06-09T10:37:18.746Z,13488.00
2018-06-09T10:38:18.766Z,12080.00
2018-06-09T10:39:18.788Z,13720.00
2018-06-09T10:40:18.808Z,13500.00
2018-06-09T10:41:18.829Z,13368.00
2018-06-09T10:42:18.919Z,13188.00
2018-06-09T10:43:18.874Z,13168.00
2018-06-09T10:44:18.887Z,13184.00
2018-06-09T10:45:18.979Z,13200.00
2018-06-09T10:46:18.930Z,13144.00
2018-06-09T10:47:18.950Z,13108.00
2018-06-09T10:48:19.046Z,13084.00
2018-06-09T10:49:18.991Z,12980.00
2018-06-09T10:50:19.011Z,12972.00
2018-06-09T10:51:19.029Z,12952.00
2018-06-09T10:52:19.051Z,12912.00
2018-06-09T10:53:19.073Z,13004.00
2018-06-09T10:54:19.091Z,12892.00
2018-06-09T10:55:19.108Z,12960.00
2018-06-09T10:56:19.131Z,12992.00
2018-06-09T10:57:19.152Z,12984.00
2018-06-09T10:58:19.167Z,13096.00
2018-06-09T10:59:19.190Z,13244.00
2018-06-09T11:00:19.259Z,13396.00
2018-06-09T11:01:19.231Z,13580.00
2018-06-09T11:02:19.255Z,13752.00
2018-06-09T11:03:19.271Z,13676.00
2018-06-09T11:04:19.286Z,14120.00
2018-06-09T11:05:19.305Z,13556.00
2018-06-09T11:06:19.326Z,13064.00
2018-06-09T11:07:19.349Z,13620.00
2018-06-09T11:08:19.365Z,11012.00
2018-06-09T11:09:19.388Z,11096.00
2018-06-09T11:10:19.411Z,10912.00
2018-06-09T11:11:19.433Z,14476.00
2018-06-09T11:12:19.449Z,14720.00
2018-06-09T11:13:19.469Z,14420.00
2018-06-09T11:14:19.494Z,14396.00
2018-06-09T11:15:19.513Z,14912.00
2018-06-09T11:16:19.531Z,15136.00
2018-06-09T11:17:19.555Z,15136.00
2018-06-09T11:18:19.681Z,8680.00
2018-06-09T11:19:19.590Z,6264.00
2018-06-09T11:20:19.606Z,14944.00
2018-06-09T11:21:19.632Z,14784.00
2018-06-09T11:22:19.649Z,14784.00
2018-06-09T11:23:19.672Z,13788.00
2018-06-09T11:24:19.756Z,14752.00
2018-06-09T11:25:19.716Z,14848.00
2018-06-09T11:26:19.737Z,5796.00
2018-06-09T11:27:19.754Z,15776.00
2018-06-09T11:28:19.769Z,14472.00
2018-06-09T11:29:19.796Z,14912.00
2018-06-09T11:30:19.864Z,7356.00
2018-06-09T11:31:19.832Z,14944.00
2018-06-09T11:32:19.850Z,11668.00
2018-06-09T11:33:19.869Z,14688.00
2018-06-09T11:34:19.892Z,13260.00
2018-06-09T11:35:19.909Z,13908.00
2018-06-09T11:36:19.930Z,13600.00
2018-06-09T11:37:19.953Z,13668.00
2018-06-09T11:38:19.972Z,12716.00
2018-06-09T11:40:20.021Z,13936.00
2018-06-09T11:41:20.034Z,13576.00
2018-06-09T11:42:20.062Z,12748.00
2018-06-09T11:43:20.074Z,13752.00
2018-06-09T11:44:20.094Z,11776.00
2018-06-09T11:45:20.116Z,12292.00
2018-06-09T11:46:20.139Z,10684.00
2018-06-09T11:47:20.159Z,12576.00
2018-06-09T11:48:20.190Z,13116.00
2018-06-09T11:49:20.199Z,12248.00
2018-06-09T11:50:20.218Z,11808.00
2018-06-09T11:51:20.239Z,10312.00
2018-06-09T11:52:20.262Z,12572.00
2018-06-09T11:53:20.305Z,11816.00
2018-06-09T11:54:20.298Z,14004.00
2018-06-09T11:55:20.319Z,11568.00
2018-06-09T11:56:20.339Z,12176.00
2018-06-09T11:57:20.355Z,15552.00
2018-06-09T11:58:20.373Z,13212.00
2018-06-09T11:59:20.438Z,14880.00
2018-06-09T12:00:20.466Z,14720.00
2018-06-09T12:01:20.434Z,14388.00
2018-06-09T12:02:20.456Z,14308.00
2018-06-09T12:03:20.475Z,13912.00
2018-06-09T12:04:20.500Z,13788.00
2018-06-09T12:05:20.518Z,13652.00
2018-06-09T12:06:20.538Z,13636.00
2018-06-09T12:07:20.561Z,13616.00
2018-06-09T12:08:20.574Z,13648.00
2018-06-09T12:09:20.597Z,13732.00
2018-06-09T12:10:20.619Z,13932.00
2018-06-09T12:11:20.635Z,14720.00
2018-06-09T12:12:20.713Z,13876.00
2018-06-09T12:13:20.678Z,14004.00
2018-06-09T12:14:20.704Z,13816.00
2018-06-09T12:15:20.718Z,13940.00
2018-06-09T12:16:20.739Z,14092.00
2018-06-09T12:17:20.843Z,14176.00
2018-06-09T12:19:20.847Z,14008.00
2018-06-09T12:20:20.823Z,13984.00
2018-06-09T12:21:20.844Z,13952.00
2018-06-09T12:22:20.857Z,14016.00
2018-06-09T12:23:20.884Z,14064.00
2018-06-09T12:24:20.953Z,14180.00
2018-06-09T12:25:20.921Z,14032.00
2018-06-09T12:26:20.938Z,13976.00
2018-06-09T12:27:20.965Z,13948.00
2018-06-09T12:28:20.984Z,13244.00
2018-06-09T12:29:20.997Z,13992.00
2018-06-09T12:30:21.098Z,14068.00
2018-06-09T12:31:21.043Z,14068.00
2018-06-09T12:32:21.058Z,14032.00
2018-06-09T12:33:21.077Z,14192.00
2018-06-09T12:34:21.101Z,14164.00
2018-06-09T12:35:21.118Z,14044.00
2018-06-09T12:36:21.212Z,14012.00
2018-06-09T12:37:21.158Z,13728.00